Time;durP1;ratioP1;P1;durP2;ratioP2;P2;SDS_P1;SDS_P2;PMS_P1;PMS_P2;Temp;Humidity;BMP_temperature;BMP_pressure;BME280_temperature;BME280_humidity;BME280_pressure;Samples;Min_cycle;Max_cycle;Signal;HPM_P1;HPM_P2
2023/08/08 00:04:21;;;;;;;7.53;4.57;;;18.00;99.40;;;;;;10094596;29;20268;-87
2023/08/08 00:09:24;;;;;;;9.75;3.40;;;18.30;98.20;;;;;;10132119;29;20244;-87
2023/08/08 00:14:26;;;;;;;7.53;5.22;;;18.20;94.60;;;;;;10115456;29;20236;-87
2023/08/08 00:19:29;;;;;;;6.53;4.07;;;18.00;98.90;;;;;;10133200;29;20240;-87
2023/08/08 00:24:32;;;;;;;9.18;3.72;;;18.00;99.00;;;;;;10116013;29;20299;-87
2023/08/08 00:29:34;;;;;;;5.95;3.55;;;18.10;97.70;;;;;;10132676;29;20659;-87
2023/08/08 00:34:37;;;;;;;4.13;3.40;;;18.20;98.00;;;;;;10115504;29;20323;-88
2023/08/08 00:39:45;;;;;;;7.53;3.58;;;18.40;97.30;;;;;;10131092;29;20284;-87
2023/08/08 00:44:48;;;;;;;7.25;4.60;;;18.40;98.20;;;;;;10107621;29;20314;-87
2023/08/08 00:49:51;;;;;;;6.07;3.67;;;18.40;99.60;;;;;;10102820;29;20280;-87
2023/08/08 00:54:54;;;;;;;8.00;3.40;;;18.30;97.70;;;;;;10131908;29;20240;-87
2023/08/08 00:59:57;;;;;;;8.90;3.97;;;18.10;99.90;;;;;;10131922;29;20788;-87
2023/08/08 01:05:01;;;;;;;9.05;3.78;;;18.00;96.80;;;;;;10131907;29;20693;-88
2023/08/08 01:10:14;;;;;;;4.82;3.45;;;17.90;97.90;;;;;;10132760;29;20340;-87
2023/08/08 01:15:18;;;;;;;7.47;4.05;;;18.10;98.80;;;;;;10118100;29;20264;-87
2023/08/08 01:20:22;;;;;;;4.60;3.75;;;18.20;97.90;;;;;;10094479;29;20217;-87
2023/08/08 01:25:28;;;;;;;5.57;3.25;;;18.10;97.80;;;;;;10092021;29;20833;-87
2023/08/08 01:30:31;;;;;;;7.22;1.98;;;18.20;95.20;;;;;;10092082;29;20632;-87
2023/08/08 01:35:41;;;;;;;5.00;3.28;;;18.30;99.80;;;;;;10116364;29;20630;-87
2023/08/08 01:40:45;;;;;;;3.80;2.53;;;18.20;94.30;;;;;;10089129;29;20644;-87
2023/08/08 01:45:48;;;;;;;6.55;3.30;;;18.20;94.30;;;;;;10074093;29;20274;-87
2023/08/08 01:50:51;;;;;;;4.97;3.92;;;18.20;98.30;;;;;;10091058;29;20289;-87
2023/08/08 01:55:53;;;;;;;3.10;1.77;;;18.20;98.70;;;;;;10089923;29;20248;-87
2023/08/08 02:00:56;;;;;;;4.35;3.55;;;18.00;93.00;;;;;;10096031;29;20311;-87
2023/08/08 02:05:58;;;;;;;7.03;3.67;;;18.00;99.00;;;;;;10111939;29;20323;-87
2023/08/08 02:11:01;;;;;;;6.32;3.47;;;17.90;98.80;;;;;;10097237;29;20227;-87
2023/08/08 02:16:03;;;;;;;5.55;3.28;;;17.90;98.80;;;;;;10112398;29;20263;-87
2023/08/08 02:21:07;;;;;;;4.60;2.60;;;17.60;97.80;;;;;;10111315;29;20299;-87
2023/08/08 02:26:10;;;;;;;4.53;2.72;;;18.00;98.80;;;;;;10094661;29;20711;-87
2023/08/08 02:31:14;;;;;;;4.15;2.85;;;18.00;99.50;;;;;;10112168;29;20243;-87
2023/08/08 02:36:18;;;;;;;2.88;2.53;;;18.00;98.10;;;;;;10111639;29;20296;-87
2023/08/08 02:41:21;;;;;;;4.07;2.83;;;17.80;97.80;;;;;;10128759;29;20397;-87
2023/08/08 02:46:25;;;;;;;2.97;2.55;;;17.90;98.40;;;;;;10111445;29;20260;-87
2023/08/08 02:51:28;;;;;;;5.40;2.50;;;17.70;96.70;;;;;;10126742;29;20280;-87
2023/08/08 02:56:31;;;;;;;3.30;2.67;;;17.70;96.40;;;;;;10128587;29;20299;-87
2023/08/08 03:01:37;;;;;;;3.28;2.00;;;17.80;99.90;;;;;;10095333;29;20292;-87
2023/08/08 03:06:42;;;;;;;3.70;3.17;;;17.90;99.90;;;;;;10080303;29;20293;-87
2023/08/08 03:11:45;;;;;;;4.25;3.15;;;17.70;98.70;;;;;;10079982;29;20288;-87
2023/08/08 03:16:50;;;;;;;4.80;2.55;;;17.80;97.90;;;;;;10080066;29;20240;-88
2023/08/08 03:21:53;;;;;;;4.85;2.63;;;17.70;98.90;;;;;;10079797;29;20308;-87
2023/08/08 03:26:56;;;;;;;6.45;2.85;;;17.70;98.60;;;;;;10078892;29;20264;-87
2023/08/08 03:31:59;;;;;;;4.70;2.83;;;17.80;99.90;;;;;;10095825;29;20307;-87
2023/08/08 03:37:05;;;;;;;1.90;1.67;;;17.90;99.20;;;;;;10096309;29;20237;-87
2023/08/08 03:42:08;;;;;;;2.60;1.77;;;18.10;99.50;;;;;;10080444;29;20213;-87
2023/08/08 03:47:11;;;;;;;3.85;2.38;;;17.90;99.20;;;;;;10087437;29;20312;-87
2023/08/08 03:52:22;;;;;;;3.67;2.50;;;17.70;98.70;;;;;;10084849;29;20245;-88
2023/08/08 03:57:25;;;;;;;3.63;1.92;;;17.90;99.30;;;;;;10086031;29;20263;-87
2023/08/08 04:02:28;;;;;;;3.60;2.70;;;18.20;99.80;;;;;;10132135;29;20236;-87
2023/08/08 04:07:31;;;;;;;5.65;1.90;;;18.00;99.00;;;;;;10133230;29;20260;-87
2023/08/08 04:12:34;;;;;;;6.70;2.78;;;17.90;96.30;;;;;;10126726;29;20644;-87
2023/08/08 04:17:36;;;;;;;4.43;2.17;;;17.90;96.70;;;;;;10131610;29;20248;-87
2023/08/08 04:22:39;;;;;;;3.60;2.50;;;17.50;95.30;;;;;;10133684;29;20666;-87
2023/08/08 04:27:42;;;;;;;3.28;2.42;;;17.70;99.10;;;;;;10132526;29;20256;-86
2023/08/08 04:32:45;;;;;;;5.00;1.73;;;17.80;98.50;;;;;;10132617;29;20236;-86
2023/08/08 04:37:48;;;;;;;3.33;2.08;;;17.70;95.90;;;;;;10131685;29;20265;-86
2023/08/08 04:42:51;;;;;;;4.00;2.78;;;17.70;97.50;;;;;;10133066;29;20741;-88
2023/08/08 04:47:54;;;;;;;6.68;2.30;;;17.70;98.70;;;;;;10131972;29;20255;-87
2023/08/08 04:52:56;;;;;;;3.83;2.28;;;17.50;94.60;;;;;;10132750;29;20228;-87
2023/08/08 04:57:59;;;;;;;2.25;1.85;;;18.10;99.20;;;;;;10112845;29;20279;-86
2023/08/08 05:03:02;;;;;;;3.63;1.90;;;18.00;96.70;;;;;;10114278;29;20299;-86
2023/08/08 05:08:04;;;;;;;2.90;1.88;;;17.90;96.10;;;;;;10131143;29;20682;-87
2023/08/08 05:13:09;;;;;;;2.63;1.55;;;18.00;98.90;;;;;;10131409;29;20722;-87
2023/08/08 05:18:12;;;;;;;3.28;1.90;;;18.10;99.50;;;;;;10114144;29;20252;-87
2023/08/08 05:23:14;;;;;;;3.70;1.85;;;18.20;96.30;;;;;;10130086;29;20240;-87
2023/08/08 05:28:17;;;;;;;2.63;1.73;;;17.80;94.50;;;;;;10129740;29;20312;-86
2023/08/08 05:33:19;;;;;;;2.25;1.67;;;17.80;94.40;;;;;;10128236;29;20240;-87
2023/08/08 05:38:22;;;;;;;3.05;1.70;;;18.10;98.90;;;;;;10130680;29;20236;-87
2023/08/08 05:43:25;;;;;;;2.72;2.00;;;18.20;96.50;;;;;;10131836;29;20232;-86
2023/08/08 05:48:29;;;;;;;2.30;1.63;;;18.00;94.70;;;;;;10116695;29;20240;-86
2023/08/08 05:53:32;;;;;;;3.28;1.73;;;18.40;98.20;;;;;;10132265;29;20216;-87
2023/08/08 05:58:37;;;;;;;1.60;0.98;;;18.50;96.40;;;;;;10132222;29;20240;-85
2023/08/08 06:03:39;;;;;;;4.50;1.42;;;18.80;88.40;;;;;;10132374;29;20212;-87
2023/08/08 06:08:42;;;;;;;1.73;1.63;;;18.80;86.70;;;;;;10131851;29;20247;-86
2023/08/08 06:13:44;;;;;;;2.85;1.40;;;18.50;88.00;;;;;;10129748;29;20308;-86
2023/08/08 06:18:56;;;;;;;1.73;1.63;;;18.10;88.10;;;;;;10132700;29;20220;-86
2023/08/08 06:23:58;;;;;;;2.88;1.27;;;18.40;87.30;;;;;;10130603;29;20237;-86
2023/08/08 06:29:01;;;;;;;2.58;1.35;;;18.40;88.20;;;;;;10104484;29;20807;-86
2023/08/08 06:34:05;;;;;;;1.42;1.00;;;18.40;88.90;;;;;;10127320;29;20268;-86
2023/08/08 06:39:11;;;;;;;2.47;1.45;;;18.50;90.70;;;;;;10128914;29;20208;-85
2023/08/08 06:44:13;;;;;;;1.85;1.30;;;18.50;89.30;;;;;;10118314;29;20303;-85
2023/08/08 06:49:16;;;;;;;3.08;1.45;;;18.60;91.00;;;;;;10128067;29;20247;-84
2023/08/08 06:54:18;;;;;;;2.38;1.20;;;18.50;85.60;;;;;;10130048;29;20229;-85
2023/08/08 06:59:22;;;;;;;2.55;1.45;;;18.50;88.20;;;;;;10128520;29;20271;-85
2023/08/08 07:04:25;;;;;;;2.40;1.30;;;18.60;90.30;;;;;;10128762;29;20216;-85
2023/08/08 07:09:27;;;;;;;0.60;0.50;;;18.50;86.90;;;;;;10114736;29;20697;-86
2023/08/08 07:14:30;;;;;;;2.90;1.75;;;18.80;91.50;;;;;;10112636;29;20313;-85
2023/08/08 07:19:33;;;;;;;1.33;0.90;;;18.50;81.10;;;;;;10128861;29;20248;-85
2023/08/08 07:24:35;;;;;;;1.33;0.82;;;18.60;91.50;;;;;;10129821;29;20283;-85
2023/08/08 07:29:38;;;;;;;1.27;0.88;;;18.60;90.60;;;;;;10130643;29;20244;-85
2023/08/08 07:34:41;;;;;;;5.57;1.33;;;18.60;90.60;;;;;;10130764;29;20201;-85
2023/08/08 07:39:43;;;;;;;1.88;1.30;;;18.90;88.00;;;;;;10128166;29;20272;-85
2023/08/08 07:44:46;;;;;;;2.30;1.48;;;18.90;86.30;;;;;;10132734;29;20618;-84
2023/08/08 07:49:48;;;;;;;3.25;1.23;;;18.70;79.40;;;;;;10139811;29;20216;-85
2023/08/08 07:54:51;;;;;;;1.70;1.20;;;18.90;89.00;;;;;;10157520;29;20236;-86
2023/08/08 07:59:53;;;;;;;1.20;0.90;;;19.10;90.30;;;;;;10157695;29;20264;-86
2023/08/08 08:04:56;;;;;;;3.00;1.17;;;19.20;85.50;;;;;;10166006;29;20249;-85
2023/08/08 08:09:58;;;;;;;2.00;1.35;;;19.30;87.90;;;;;;10168777;29;20225;-84
2023/08/08 08:15:02;;;;;;;1.33;0.93;;;19.30;88.60;;;;;;10184002;29;20197;-85
2023/08/08 08:20:10;;;;;;;2.50;1.20;;;19.30;85.00;;;;;;10169178;29;20225;-85
2023/08/08 08:25:14;;;;;;;2.08;1.70;;;19.40;80.30;;;;;;10182113;29;20212;-85
2023/08/08 08:30:17;;;;;;;1.90;1.27;;;19.40;90.10;;;;;;10165633;29;20221;-85
2023/08/08 08:35:21;;;;;;;1.55;1.30;;;19.40;85.20;;;;;;10162294;29;20209;-85
2023/08/08 08:40:24;;;;;;;2.92;1.05;;;19.50;86.70;;;;;;10176456;29;20181;-85
2023/08/08 08:45:29;;;;;;;1.92;1.27;;;19.70;84.80;;;;;;10158415;29;20237;-85
2023/08/08 08:50:33;;;;;;;2.17;1.23;;;19.50;85.70;;;;;;10169845;29;20200;-86
2023/08/08 08:55:36;;;;;;;2.95;1.05;;;19.40;84.10;;;;;;10182992;29;20230;-85
2023/08/08 09:00:39;;;;;;;1.38;1.05;;;19.40;82.00;;;;;;10158755;29;20277;-84
2023/08/08 09:05:44;;;;;;;2.35;1.05;;;19.50;86.00;;;;;;10174809;29;20251;-85
2023/08/08 09:10:47;;;;;;;1.00;0.77;;;19.50;77.20;;;;;;10172571;29;20259;-85
2023/08/08 09:15:49;;;;;;;1.27;1.05;;;19.70;77.80;;;;;;10162082;29;20260;-86
2023/08/08 09:20:53;;;;;;;2.58;1.17;;;19.60;73.70;;;;;;10173388;29;20245;-86
2023/08/08 09:25:55;;;;;;;0.93;0.60;;;19.60;84.70;;;;;;10162221;29;20204;-86
2023/08/08 09:30:58;;;;;;;1.65;1.30;;;19.50;83.60;;;;;;10177012;29;20240;-86
2023/08/08 09:36:01;;;;;;;3.90;1.40;;;19.20;74.90;;;;;;10172601;29;20642;-86
2023/08/08 09:41:03;;;;;;;1.40;0.82;;;19.10;79.90;;;;;;10175805;29;20500;-84
2023/08/08 09:46:08;;;;;;;2.67;1.55;;;19.20;83.10;;;;;;10117260;29;20220;-86
2023/08/08 09:51:11;;;;;;;1.23;1.02;;;19.30;79.40;;;;;;10161595;29;20232;-86
2023/08/08 09:56:15;;;;;;;1.75;1.17;;;19.40;86.10;;;;;;10170250;29;20207;-86
2023/08/08 10:01:19;;;;;;;2.47;1.00;;;19.50;81.90;;;;;;10159916;29;20748;-86
2023/08/08 10:06:22;;;;;;;1.35;1.17;;;19.60;84.90;;;;;;10139762;29;20233;-86
2023/08/08 10:11:26;;;;;;;1.60;1.10;;;19.70;78.80;;;;;;10175847;29;20216;-84
2023/08/08 10:16:33;;;;;;;1.65;0.70;;;20.00;82.00;;;;;;10169107;29;20200;-86
2023/08/08 10:21:40;;;;;;;1.77;0.85;;;19.90;81.10;;;;;;10165863;29;20547;-84
2023/08/08 10:27:01;;;;;;;1.35;1.10;;;19.90;74.30;;;;;;10168275;29;20261;-86
2023/08/08 10:32:06;;;;;;;2.60;1.17;;;19.70;77.50;;;;;;10145140;29;20228;-86
2023/08/08 10:37:13;;;;;;;2.13;1.40;;;19.90;73.40;;;;;;10138437;29;20272;-86
2023/08/08 10:42:19;;;;;;;1.35;0.77;;;20.10;66.70;;;;;;10136323;29;20743;-84
2023/08/08 10:47:34;;;;;;;1.95;0.80;;;20.30;77.30;;;;;;10117750;29;20982;-84
2023/08/08 10:52:51;;;;;;;1.20;1.10;;;20.10;76.50;;;;;;10132835;29;20750;-85
2023/08/08 10:58:07;;;;;;;1.38;0.90;;;20.10;70.40;;;;;;10131612;29;20231;-84
2023/08/08 11:03:10;;;;;;;1.42;1.10;;;20.10;68.80;;;;;;10131709;29;20264;-84
2023/08/08 11:08:12;;;;;;;6.97;0.82;;;20.40;74.00;;;;;;10131653;29;20268;-84
2023/08/08 11:13:15;;;;;;;1.77;1.25;;;20.40;66.10;;;;;;10115516;29;20241;-84
2023/08/08 11:18:18;;;;;;;0.80;0.65;;;20.60;69.00;;;;;;10123813;29;20240;-84
2023/08/08 11:23:20;;;;;;;1.48;1.00;;;20.60;72.80;;;;;;10140269;29;20340;-84
2023/08/08 11:28:23;;;;;;;2.00;1.15;;;20.60;68.10;;;;;;10140395;29;20453;-84
2023/08/08 11:33:25;;;;;;;1.02;0.90;;;20.70;70.50;;;;;;10120330;29;20216;-84
2023/08/08 11:38:28;;;;;;;1.10;1.00;;;20.80;64.30;;;;;;10137724;29;20255;-83
2023/08/08 11:43:31;;;;;;;1.90;1.30;;;20.90;67.10;;;;;;10137541;29;20220;-84
2023/08/08 11:48:34;;;;;;;2.90;0.93;;;20.90;63.70;;;;;;10136527;29;20264;-85
2023/08/08 11:53:49;;;;;;;3.58;1.23;;;20.60;65.90;;;;;;10140516;29;20286;-85
2023/08/08 11:58:52;;;;;;;2.53;1.35;;;20.10;57.90;;;;;;10124103;29;20235;-85
2023/08/08 12:03:55;;;;;;;1.15;1.05;;;19.70;68.40;;;;;;10137254;29;20212;-84
2023/08/08 12:08:57;;;;;;;1.05;0.70;;;19.50;71.90;;;;;;10137798;29;20236;-84
2023/08/08 12:14:00;;;;;;;1.48;1.25;;;19.60;79.80;;;;;;10136414;29;20208;-84
2023/08/08 12:19:07;;;;;;;1.67;1.15;;;19.70;75.70;;;;;;10117091;29;20217;-84
2023/08/08 12:24:09;;;;;;;1.85;1.05;;;19.70;67.80;;;;;;10109549;29;20240;-84
2023/08/08 12:29:12;;;;;;;1.63;0.90;;;19.60;77.00;;;;;;10133116;29;20765;-84
2023/08/08 12:34:14;;;;;;;2.53;1.02;;;19.60;78.30;;;;;;10143591;29;20233;-85
2023/08/08 12:39:17;;;;;;;2.22;1.10;;;19.60;65.20;;;;;;10139998;29;20256;-86
2023/08/08 12:44:20;;;;;;;3.77;0.97;;;19.60;62.90;;;;;;10143073;29;20208;-89
2023/08/08 12:49:22;;;;;;;22.40;3.08;;;19.70;62.80;;;;;;10143478;29;20249;-90
2023/08/08 12:54:25;;;;;;;3.95;1.30;;;19.70;63.00;;;;;;10127734;29;20245;-89
2023/08/08 12:59:28;;;;;;;7.78;1.55;;;19.70;64.00;;;;;;10144613;29;20284;-89
2023/08/08 13:04:31;;;;;;;1.95;0.90;;;19.60;64.80;;;;;;10126506;29;20700;-89
2023/08/08 13:09:33;;;;;;;2.28;0.90;;;19.60;61.70;;;;;;10142858;29;20711;-90
2023/08/08 13:14:36;;;;;;;2.38;1.55;;;19.50;60.50;;;;;;10110692;29;20276;-89
2023/08/08 13:19:40;;;;;;;1.85;1.10;;;19.50;63.50;;;;;;10141565;29;20248;-89
2023/08/08 13:24:42;;;;;;;11.88;2.50;;;19.40;66.20;;;;;;10117907;29;20447;-85
2023/08/08 13:29:45;;;;;;;2.25;1.13;;;19.60;66.50;;;;;;10136454;29;20232;-88
2023/08/08 13:34:47;;;;;;;1.42;1.20;;;19.90;64.00;;;;;;10134591;29;20212;-88
2023/08/08 13:39:50;;;;;;;3.53;1.23;;;19.90;65.50;;;;;;10119338;29;20241;-90
2023/08/08 13:44:52;;;;;;;2.95;0.90;;;20.10;65.50;;;;;;10119264;29;20268;-88
2023/08/08 13:50:34;;;;;;;5.10;1.73;;;20.30;65.20;;;;;;10132269;23;20229;-89
2023/08/08 13:55:39;;;;;;;2.83;1.20;;;20.70;65.70;;;;;;10177708;29;20258;-89
2023/08/08 14:00:42;;;;;;;1.48;1.10;;;20.70;65.00;;;;;;10177570;29;20211;-88
2023/08/08 14:05:44;;;;;;;1.13;0.80;;;20.70;65.00;;;;;;10175316;29;20216;-89
2023/08/08 14:10:47;;;;;;;2.05;1.20;;;20.70;66.90;;;;;;10156479;29;20223;-89
2023/08/08 14:15:51;;;;;;;1.30;1.20;;;20.80;65.20;;;;;;10174651;29;20570;-88
2023/08/08 14:20:54;;;;;;;1.25;0.80;;;20.80;65.10;;;;;;10154791;29;20279;-89
2023/08/08 14:25:57;;;;;;;1.33;0.95;;;21.10;68.70;;;;;;10174316;29;20228;-90
2023/08/08 14:31:01;;;;;;;2.33;1.30;;;21.20;63.70;;;;;;10161318;29;20314;-90
2023/08/08 14:36:05;;;;;;;3.95;1.02;;;21.00;64.50;;;;;;10172303;29;20207;-90
2023/08/08 14:41:08;;;;;;;1.85;1.40;;;20.90;68.20;;;;;;10168314;29;20267;-90
2023/08/08 14:46:11;;;;;;;6.57;1.30;;;20.90;67.90;;;;;;10170077;29;20753;-90
2023/08/08 14:51:16;;;;;;;1.38;1.05;;;20.40;72.40;;;;;;10170226;29;20287;-89
2023/08/08 14:56:19;;;;;;;5.97;1.52;;;20.30;77.10;;;;;;10176786;29;20207;-89
2023/08/08 15:01:22;;;;;;;4.05;1.83;;;20.40;79.00;;;;;;10176490;29;20204;-90
2023/08/08 15:06:24;;;;;;;1.38;1.10;;;20.10;82.90;;;;;;10187967;29;20255;-90
2023/08/08 15:11:27;;;;;;;1.08;0.95;;;20.20;84.70;;;;;;10178582;29;20255;-90
2023/08/08 15:16:30;;;;;;;3.13;1.17;;;20.30;87.30;;;;;;10177470;29;20240;-90
2023/08/08 15:21:32;;;;;;;1.98;1.42;;;20.50;88.10;;;;;;10175346;29;20697;-90
2023/08/08 15:26:34;;;;;;;1.70;1.10;;;20.70;84.70;;;;;;10160900;29;20251;-90
2023/08/08 15:31:37;;;;;;;1.70;1.48;;;20.60;85.40;;;;;;10177581;29;20632;-91
2023/08/08 15:36:40;;;;;;;1.58;0.98;;;20.40;82.60;;;;;;10175910;29;20634;-90
2023/08/08 15:41:43;;;;;;;2.47;1.30;;;20.10;87.00;;;;;;10176883;29;20196;-90
2023/08/08 15:46:46;;;;;;;1.52;1.20;;;20.00;88.20;;;;;;10173407;29;20267;-90
2023/08/08 15:51:48;;;;;;;1.15;0.80;;;19.90;90.00;;;;;;10173438;29;20283;-90
2023/08/08 15:56:51;;;;;;;1.35;0.95;;;18.70;99.90;;;;;;10173687;29;20231;-90
2023/08/08 16:01:54;;;;;;;0.85;0.55;;;17.90;99.90;;;;;;10173058;29;20235;-91
2023/08/08 16:06:56;;;;;;;1.00;0.80;;;17.90;99.90;;;;;;10173669;29;20707;-90
2023/08/08 16:11:59;;;;;;;6.75;1.73;;;17.90;99.90;;;;;;10174947;29;20567;-89
2023/08/08 16:17:02;;;;;;;4.72;1.30;;;17.60;99.90;;;;;;10173653;29;20314;-88
2023/08/08 16:22:06;;;;;;;1.75;1.25;;;17.30;99.90;;;;;;10176465;29;20247;-88
2023/08/08 16:27:08;;;;;;;2.40;1.88;;;16.80;99.90;;;;;;10178365;29;20642;-89
2023/08/08 16:32:11;;;;;;;3.28;1.70;;;16.90;99.90;;;;;;10176191;29;20286;-89
2023/08/08 16:37:14;;;;;;;2.47;2.22;;;16.90;99.90;;;;;;10161840;29;20239;-90
2023/08/08 16:42:16;;;;;;;6.13;2.08;;;16.90;99.90;;;;;;10174118;29;20267;-90
2023/08/08 16:47:19;;;;;;;2.28;1.70;;;16.70;99.90;;;;;;10163776;29;20262;-89
2023/08/08 16:52:22;;;;;;;1.80;1.58;;;16.40;99.90;;;;;;10171002;29;20271;-89
2023/08/08 16:57:24;;;;;;;3.38;2.15;;;16.50;99.90;;;;;;10146124;29;20232;-90
2023/08/08 17:02:27;;;;;;;2.97;1.35;;;16.30;99.90;;;;;;10133965;29;20236;-90
2023/08/08 17:07:30;;;;;;;3.55;1.75;;;16.50;99.90;;;;;;10164665;29;20318;-89
2023/08/08 17:12:32;;;;;;;3.45;1.60;;;16.40;99.90;;;;;;10172190;29;20726;-89
2023/08/08 17:17:35;;;;;;;4.60;2.10;;;16.20;99.90;;;;;;10172014;29;20638;-89
2023/08/08 17:22:38;;;;;;;2.88;1.58;;;16.20;99.90;;;;;;10171722;29;20302;-90
2023/08/08 17:27:41;;;;;;;3.03;1.48;;;15.90;99.90;;;;;;10169821;29;20258;-90
2023/08/08 17:32:43;;;;;;;3.40;1.83;;;15.90;99.90;;;;;;10166293;29;20738;-90
2023/08/08 17:37:47;;;;;;;4.75;1.63;;;16.10;99.90;;;;;;10114524;29;20679;-89
2023/08/08 17:42:49;;;;;;;3.78;2.28;;;15.70;99.90;;;;;;10166421;29;20684;-90
2023/08/08 17:47:52;;;;;;;2.15;1.90;;;15.30;99.90;;;;;;10179315;29;20310;-89
2023/08/08 17:52:55;;;;;;;2.92;2.22;;;;;;;;;;10168175;29;20259;-89
2023/08/08 17:57:57;;;;;;;2.78;2.03;;;14.70;99.90;;;;;;10169710;29;20239;-90
2023/08/08 18:03:00;;;;;;;3.65;2.22;;;;;;;;;;10169367;29;20268;-90
2023/08/08 18:08:04;;;;;;;6.75;2.53;;;14.40;99.90;;;;;;10152855;29;20262;-88
2023/08/08 18:13:07;;;;;;;4.63;2.80;;;14.20;99.90;;;;;;10168374;29;20208;-90
2023/08/08 18:18:09;;;;;;;2.85;2.28;;;14.20;99.90;;;;;;10153591;29;20274;-89
2023/08/08 18:23:12;;;;;;;4.30;2.20;;;14.10;99.90;;;;;;10156568;29;20240;-89
2023/08/08 18:28:15;;;;;;;4.32;2.58;;;14.00;99.90;;;;;;10168398;29;20255;-90
2023/08/08 18:33:18;;;;;;;2.80;2.30;;;14.00;99.90;;;;;;10142666;29;20621;-90
2023/08/08 18:38:20;;;;;;;3.20;2.53;;;13.90;99.90;;;;;;10168210;29;20298;-89
2023/08/08 18:43:23;;;;;;;4.15;2.50;;;13.90;99.90;;;;;;10168076;29;20243;-90
2023/08/08 18:48:25;;;;;;;3.47;2.27;;;13.70;99.90;;;;;;10151524;29;20254;-89
2023/08/08 18:53:28;;;;;;;2.43;2.23;;;13.60;99.90;;;;;;10167234;29;20266;-90
2023/08/08 18:58:30;;;;;;;2.50;2.30;;;13.40;99.90;;;;;;10159607;29;20292;-89
2023/08/08 19:03:33;;;;;;;3.58;2.15;;;13.30;99.90;;;;;;10167195;29;20306;-90
2023/08/08 19:08:36;;;;;;;2.75;1.90;;;13.20;99.90;;;;;;10167164;29;20642;-89
2023/08/08 19:13:38;;;;;;;2.97;2.45;;;12.90;99.90;;;;;;10164092;29;20239;-89
2023/08/08 19:18:41;;;;;;;3.77;2.70;;;12.90;99.90;;;;;;10163903;29;20310;-89
2023/08/08 19:23:44;;;;;;;4.30;2.60;;;12.70;99.90;;;;;;10165218;29;21261;-89
2023/08/08 19:28:46;;;;;;;3.07;2.60;;;12.50;99.90;;;;;;10162872;29;20270;-90
2023/08/08 19:33:50;;;;;;;3.70;3.40;;;12.50;99.90;;;;;;10149473;29;20314;-89
2023/08/08 19:39:07;;;;;;;6.50;3.60;;;12.50;99.90;;;;;;10166092;29;20227;-88
2023/08/08 19:44:10;;;;;;;8.60;4.40;;;12.40;99.90;;;;;;10171351;29;20247;-89
2023/08/08 19:49:12;;;;;;;4.63;3.57;;;12.40;99.90;;;;;;10172804;29;20310;-90
2023/08/08 19:54:15;;;;;;;5.13;3.60;;;12.50;99.90;;;;;;10172060;29;20315;-90
2023/08/08 19:59:17;;;;;;;4.40;4.00;;;12.60;99.90;;;;;;10155680;29;20804;-90
2023/08/08 20:04:20;;;;;;;4.03;3.63;;;12.70;99.90;;;;;;10171990;29;20239;-88
2023/08/08 20:09:23;;;;;;;5.10;3.87;;;12.80;99.90;;;;;;10171612;29;20745;-86
2023/08/08 20:14:25;;;;;;;6.50;3.93;;;12.80;99.90;;;;;;10171184;29;20677;-89
2023/08/08 20:19:28;;;;;;;6.20;3.13;;;13.10;99.90;;;;;;10171665;29;20290;-89
2023/08/08 20:24:31;;;;;;;3.50;2.30;;;13.20;99.90;;;;;;10167819;29;20231;-90
2023/08/08 20:29:33;;;;;;;2.40;1.90;;;13.60;99.90;;;;;;10148797;29;20327;-92
2023/08/08 20:34:36;;;;;;;3.22;1.52;;;14.10;99.90;;;;;;10129658;29;20597;-91
2023/08/08 20:39:39;;;;;;;2.47;1.98;;;14.60;99.90;;;;;;10150444;29;20235;-92
2023/08/08 20:44:42;;;;;;;2.20;1.90;;;15.10;99.90;;;;;;10171205;29;20774;-92
2023/08/08 20:49:44;;;;;;;3.35;2.20;;;15.50;99.90;;;;;;10170698;29;20319;-91
2023/08/08 20:54:50;;;;;;;2.70;1.60;;;16.00;99.90;;;;;;10154408;29;20311;-91
2023/08/08 20:59:52;;;;;;;3.70;2.10;;;16.10;99.90;;;;;;10168715;29;20251;-90
2023/08/08 21:04:55;;;;;;;2.25;1.40;;;16.20;99.90;;;;;;10171062;29;20239;-92
2023/08/08 21:09:57;;;;;;;2.72;2.05;;;15.90;99.90;;;;;;10171412;29;20259;-91
2023/08/08 21:15:00;;;;;;;4.20;1.70;;;15.70;99.90;;;;;;10169615;29;20287;-89
2023/08/08 21:20:04;;;;;;;3.38;2.33;;;15.80;99.90;;;;;;10153073;29;20649;-89
2023/08/08 21:25:08;;;;;;;2.13;1.88;;;15.50;99.90;;;;;;10171132;29;20231;-87
2023/08/08 21:30:11;;;;;;;2.78;1.80;;;15.20;99.90;;;;;;10171093;29;20286;-88
2023/08/08 21:35:14;;;;;;;3.40;2.50;;;15.30;99.90;;;;;;10170901;29;20235;-90
2023/08/08 21:40:16;;;;;;;6.45;2.67;;;15.40;99.90;;;;;;10169809;29;20330;-89
2023/08/08 21:45:19;;;;;;;3.30;2.75;;;15.00;99.90;;;;;;10151729;29;20708;-88
2023/08/08 21:50:21;;;;;;;3.88;2.70;;;15.00;99.90;;;;;;10170190;29;20282;-88
2023/08/08 21:55:24;;;;;;;3.70;2.30;;;14.80;99.90;;;;;;10134387;29;20719;-89
2023/08/08 22:00:27;;;;;;;3.33;1.67;;;14.70;99.90;;;;;;10151050;29;20657;-88
2023/08/08 22:05:29;;;;;;;2.58;1.95;;;14.50;99.90;;;;;;10167065;29;20670;-86
2023/08/08 22:10:33;;;;;;;2.13;1.90;;;14.80;99.90;;;;;;10168538;29;20342;-89
2023/08/08 22:15:37;;;;;;;2.67;2.10;;;14.80;99.90;;;;;;10169203;29;20771;-89
2023/08/08 22:20:41;;;;;;;3.78;2.35;;;14.90;99.90;;;;;;10168653;29;20295;-88
2023/08/08 22:25:44;;;;;;;3.28;2.13;;;15.00;99.90;;;;;;10151144;29;20227;-88
2023/08/08 22:30:47;;;;;;;2.42;1.52;;;15.20;99.90;;;;;;10165298;29;20657;-89
2023/08/08 22:35:54;;;;;;;4.15;1.95;;;15.50;99.90;;;;;;10150924;29;20243;-88
2023/08/08 22:40:56;;;;;;;2.45;1.55;;;15.30;99.90;;;;;;10167967;29;20243;-89
2023/08/08 22:46:01;;;;;;;1.50;1.40;;;15.90;99.90;;;;;;10167849;29;20235;-89
2023/08/08 22:51:03;;;;;;;1.67;1.38;;;16.30;99.90;;;;;;10165731;29;20259;-89
2023/08/08 22:56:06;;;;;;;1.75;1.42;;;16.30;99.90;;;;;;10166841;29;20234;-89
2023/08/08 23:01:08;;;;;;;1.52;1.20;;;16.70;99.90;;;;;;10142660;29;20656;-89
2023/08/08 23:06:11;;;;;;;1.40;1.15;;;16.50;99.90;;;;;;10143044;29;20706;-89
2023/08/08 23:11:15;;;;;;;2.42;1.40;;;16.70;99.90;;;;;;10167669;29;20665;-89
2023/08/08 23:16:17;;;;;;;2.28;1.48;;;16.90;99.90;;;;;;10172877;29;20286;-89
2023/08/08 23:21:20;;;;;;;1.88;1.40;;;16.20;99.90;;;;;;10174301;29;20302;-90
2023/08/08 23:26:23;;;;;;;1.88;1.27;;;16.00;99.90;;;;;;10174974;29;20239;-89
2023/08/08 23:31:25;;;;;;;3.67;1.45;;;15.90;99.90;;;;;;10177447;29;20263;-89
2023/08/08 23:36:28;;;;;;;1.90;1.25;;;15.50;99.90;;;;;;10157568;29;20259;-89
2023/08/08 23:41:30;;;;;;;3.85;1.20;;;15.20;99.90;;;;;;10174046;29;20267;-90
2023/08/08 23:46:33;;;;;;;1.33;1.20;;;15.10;99.90;;;;;;10173929;29;20678;-89
2023/08/08 23:51:36;;;;;;;2.47;1.35;;;14.90;99.90;;;;;;10172284;29;20271;-89
2023/08/08 23:56:43;;;;;;;9.30;4.18;;;14.70;99.90;;;;;;10172450;29;20277;-90
